Golden Meadow, LA (70357)

9:42 AM CDT en Agosto 29, 2016 (GMT -0500)
Port Fourchon Terminal | | Change Station

Alt 7 ft 29.12 °N, 90.20 °W | Updated 7 minutes ago

Mostly Cloudy
Muy nublado
84 ° F
Sensación térmica 96 ° F
N
12
Viento Variable Viento desde ENE
Gusts 20 mph

Hoy
Alta -- | Baja -- ° F
--% Posibilidad de precipitaciones
Ayer
Alta -- | Baja -- ° F
Precip. -- pul
Presión 29.95 pul
Visibilidad 10.0 Millas
Nubes Nubes dispersas 1700 ft
Nubes dispersas 2200 ft
Muy nublado 3200 ft
Índice de calor 96 ° F
Punto de rocío 79 ° F
Humedad 84%
Precipitaciones 0.00 pul
Espesor de la nieve No disponible.
6:37 AM 7:25 PM
Creciente menguante, 8% visible
METAR KXPY 291435Z AUTO 07010G17KT 10SM SCT017 SCT022 BKN032 29/26 A2995 RMK A01
Presión 29.95 pul
Visibilidad 10.0 Millas
Nubes Nubes dispersas 1700 ft
Nubes dispersas 2200 ft
Muy nublado 3200 ft
Índice de calor 96 ° F
Punto de rocío 79 ° F
Humedad 84%
Precipitaciones 0.00 pul
Espesor de la nieve No disponible.
6:37 AM 7:25 PM
Creciente menguante, 8% visible
METAR KXPY 291435Z AUTO 07010G17KT 10SM SCT017 SCT022 BKN032 29/26 A2995 RMK A01

10-Day Weather Forecast

Almanac

Astronomía

Aug. 29, 2016 Salida Puesta
Hora real
Crepúsculo civil
Crepúsculo náutico
Crepúsculo astronómico
Luna
Horas de luz
Horas de luz
Tomorrow will be .
, % of the Moon is Illuminated

Extremos de hoy

Máximos del estado Bajos del estado

Community

WunderPhotos

Upload Photos

1,935,840 ¡fotos cargadas!

WunderBlog® & News

Nearby

Calidad del aire

  Calidad del aire Índice AQ Contaminante
Not available.

Grosos de nieve

Estación Profundido Altura

Actividad de terremotos

Ciudad Distance Mag. Tiempo y dato
Magnitud mínima muestra es 2,5.

Temperaturas de aguas costeras

Lugar Temperatura

Stations

Estaciones meteorológicas cercanas

Ubicación de la estación Temp. Vientos helados Punto de rocío Humedad Viento Precip. Alt Actualizado Tipo
                   

Watches & Warnings

There are currently no watches in effect.